createdAt,value
2024-03-16T00:01:33.734Z,6.70
2024-03-16T00:04:00.679Z,6.43
2024-03-16T00:06:27.336Z,6.97
2024-03-16T00:08:53.960Z,6.95
2024-03-16T00:11:21.002Z,5.97
2024-03-16T00:13:47.610Z,5.95
2024-03-16T00:16:14.356Z,5.93
2024-03-16T00:18:40.912Z,6.40
2024-03-16T00:21:07.548Z,6.07
2024-03-16T00:23:35.856Z,6.22
2024-03-16T00:26:02.632Z,6.45
2024-03-16T00:28:29.256Z,6.45
2024-03-16T00:30:55.765Z,6.13
2024-03-16T00:33:23.078Z,5.63
2024-03-16T00:35:49.826Z,5.38
2024-03-16T00:38:17.760Z,5.75
2024-03-16T00:40:44.304Z,6.18
2024-03-16T00:43:11.741Z,5.93
2024-03-16T00:45:39.184Z,6.38
2024-03-16T00:48:06.049Z,5.25
2024-03-16T00:50:35.451Z,5.45
2024-03-16T00:53:02.089Z,5.75
2024-03-16T00:55:28.595Z,5.35
2024-03-16T00:57:55.164Z,5.50
2024-03-16T01:00:22.406Z,5.35
2024-03-16T01:02:49.451Z,6.22
2024-03-16T01:05:15.956Z,5.78
2024-03-16T01:07:42.696Z,5.57
2024-03-16T01:10:12.624Z,5.20
2024-03-16T01:12:39.443Z,5.65
2024-03-16T01:15:07.001Z,5.57
2024-03-16T01:17:33.593Z,6.20
2024-03-16T01:20:00.640Z,5.38
2024-03-16T01:22:27.243Z,5.90
2024-03-16T01:24:53.826Z,5.35
2024-03-16T01:27:20.619Z,5.60
2024-03-16T01:29:47.638Z,5.88
2024-03-16T01:32:14.200Z,5.38
2024-03-16T01:34:40.898Z,4.72
2024-03-16T01:37:07.524Z,5.35
2024-03-16T01:39:34.394Z,4.72
2024-03-16T01:42:00.964Z,4.82
2024-03-16T01:44:27.458Z,4.53
2024-03-16T01:46:53.969Z,5.30
2024-03-16T01:49:20.439Z,5.72
2024-03-16T01:51:47.007Z,4.65
2024-03-16T01:54:13.592Z,4.70
2024-03-16T01:56:40.555Z,5.05
2024-03-16T01:59:07.175Z,5.07
2024-03-16T02:01:33.880Z,4.93
2024-03-16T02:04:00.662Z,4.68
2024-03-16T02:06:28.404Z,4.53
2024-03-16T02:08:55.385Z,4.78
2024-03-16T02:11:23.077Z,5.18
2024-03-16T02:13:50.132Z,5.18
2024-03-16T02:16:16.979Z,4.80
2024-03-16T02:18:43.799Z,4.43
2024-03-16T02:21:11.512Z,4.88
2024-03-16T02:23:38.433Z,4.93
2024-03-16T02:26:05.982Z,4.50
2024-03-16T02:28:32.819Z,4.38
2024-03-16T02:30:59.823Z,3.95
2024-03-16T02:33:28.779Z,4.90
2024-03-16T02:35:56.746Z,4.13
2024-03-16T02:38:23.880Z,4.40
2024-03-16T02:40:50.625Z,4.32
2024-03-16T02:43:17.200Z,4.25
2024-03-16T02:45:43.788Z,4.25
2024-03-16T02:48:11.006Z,4.43
2024-03-16T02:50:37.752Z,4.75
2024-03-16T02:53:05.008Z,4.30
2024-03-16T02:55:31.707Z,4.60
2024-03-16T02:57:58.450Z,4.40
2024-03-16T03:00:25.534Z,4.43
2024-03-16T03:02:52.847Z,4.43
2024-03-16T03:05:22.349Z,4.10
2024-03-16T03:07:49.330Z,4.57
2024-03-16T03:10:16.201Z,4.70
2024-03-16T03:12:42.943Z,4.43
2024-03-16T03:15:11.163Z,4.95
2024-03-16T03:17:37.767Z,4.20
2024-03-16T03:20:06.748Z,4.38
2024-03-16T03:22:33.789Z,3.92
2024-03-16T03:25:00.638Z,3.78
2024-03-16T03:27:27.350Z,4.40
2024-03-16T03:29:53.979Z,3.60
2024-03-16T03:32:20.494Z,3.80
2024-03-16T03:34:47.832Z,3.95
2024-03-16T03:37:14.443Z,3.47
2024-03-16T03:39:41.064Z,4.32
2024-03-16T03:42:07.806Z,3.83
2024-03-16T03:44:39.615Z,3.95
2024-03-16T03:47:08.337Z,3.60
2024-03-16T03:49:36.842Z,3.70
2024-03-16T03:52:05.860Z,4.18
2024-03-16T03:54:33.370Z,3.80
2024-03-16T03:57:00.210Z,4.40
2024-03-16T03:59:26.782Z,4.07
2024-03-16T04:01:53.557Z,4.25
2024-03-16T04:04:20.206Z,3.25
2024-03-16T04:06:47.799Z,3.90
2024-03-16T04:09:15.344Z,3.88
2024-03-16T04:11:41.998Z,4.38
2024-03-16T04:14:09.064Z,3.40
2024-03-16T04:16:35.749Z,3.80
2024-03-16T04:19:02.505Z,4.07
2024-03-16T04:21:29.280Z,4.07
2024-03-16T04:23:55.922Z,3.70
2024-03-16T04:26:24.035Z,3.25
2024-03-16T04:28:51.179Z,3.67
2024-03-16T04:31:18.356Z,3.35
2024-03-16T04:33:45.221Z,3.60
2024-03-16T04:36:13.507Z,4.07
2024-03-16T04:38:40.140Z,3.78
2024-03-16T04:41:06.671Z,3.67
2024-03-16T04:43:33.679Z,3.67
2024-03-16T04:46:00.272Z,4.13
2024-03-16T04:48:26.908Z,3.53
2024-03-16T04:50:55.914Z,3.85
2024-03-16T04:53:22.432Z,3.28
2024-03-16T04:55:51.483Z,3.80
2024-03-16T04:58:18.845Z,3.90
2024-03-16T05:00:45.478Z,3.80
2024-03-16T05:03:12.294Z,3.63
2024-03-16T05:05:38.872Z,3.33
2024-03-16T05:08:05.789Z,3.63
2024-03-16T05:10:32.306Z,3.15
2024-03-16T05:12:58.891Z,4.03
2024-03-16T05:15:25.782Z,3.47
2024-03-16T05:17:52.420Z,2.95
2024-03-16T05:20:20.110Z,3.00
2024-03-16T05:22:46.598Z,3.65
2024-03-16T05:25:13.292Z,3.60
2024-03-16T05:27:40.008Z,3.38
2024-03-16T05:30:08.578Z,3.17
2024-03-16T05:32:35.703Z,3.40
2024-03-16T05:35:02.585Z,3.10
2024-03-16T05:37:31.385Z,3.05
2024-03-16T05:39:58.561Z,3.80
2024-03-16T05:42:25.132Z,3.10
2024-03-16T05:44:52.286Z,3.60
2024-03-16T05:47:22.727Z,3.10
2024-03-16T05:49:49.297Z,3.45
2024-03-16T05:52:16.113Z,3.90
2024-03-16T05:54:42.670Z,3.03
2024-03-16T05:57:09.293Z,3.30
2024-03-16T05:59:35.906Z,3.00
2024-03-16T06:02:02.536Z,2.75
2024-03-16T06:04:29.144Z,3.10
2024-03-16T06:06:56.526Z,3.20
2024-03-16T06:09:23.082Z,3.25
2024-03-16T06:11:49.577Z,3.20
2024-03-16T06:14:16.084Z,3.58
2024-03-16T06:16:42.581Z,2.92
2024-03-16T06:19:09.242Z,2.80
2024-03-16T06:21:35.871Z,2.63
2024-03-16T06:24:04.957Z,3.00
2024-03-16T06:26:37.670Z,2.95
2024-03-16T06:29:09.772Z,3.30
2024-03-16T06:31:38.815Z,2.95
2024-03-16T06:34:08.539Z,3.40
2024-03-16T06:36:36.848Z,3.33
2024-03-16T06:39:12.839Z,2.95
2024-03-16T06:41:39.547Z,2.90
2024-03-16T06:44:06.071Z,2.97
2024-03-16T06:46:33.235Z,2.78
2024-03-16T06:49:07.588Z,3.45
2024-03-16T06:51:34.885Z,3.08
2024-03-16T06:54:01.662Z,3.20
2024-03-16T06:56:28.264Z,2.45
2024-03-16T06:58:54.766Z,3.03
2024-03-16T07:01:21.940Z,3.33
2024-03-16T07:03:48.734Z,2.95
2024-03-16T07:06:15.281Z,2.67
2024-03-16T07:08:41.839Z,2.92
2024-03-16T07:11:08.379Z,2.83
2024-03-16T07:13:36.288Z,2.78
2024-03-16T07:16:02.861Z,2.80
2024-03-16T07:18:29.544Z,2.53
2024-03-16T07:20:58.966Z,2.83
2024-03-16T07:23:26.685Z,2.97
2024-03-16T07:25:53.356Z,2.65
2024-03-16T07:28:19.981Z,2.72
2024-03-16T07:30:46.620Z,2.85
2024-03-16T07:33:14.821Z,2.70
2024-03-16T07:35:41.499Z,2.83
2024-03-16T07:38:08.062Z,2.55
2024-03-16T07:40:35.054Z,2.95
2024-03-16T07:43:02.625Z,2.58
2024-03-16T07:45:29.354Z,2.63
2024-03-16T07:47:56.091Z,3.03
2024-03-16T07:50:22.763Z,2.63
2024-03-16T07:52:49.336Z,2.70
2024-03-16T07:55:16.097Z,2.42
2024-03-16T07:57:43.764Z,2.45
2024-03-16T08:00:12.477Z,3.03
2024-03-16T08:02:39.297Z,2.38
2024-03-16T08:05:06.045Z,2.60
2024-03-16T08:07:32.749Z,2.53
2024-03-16T08:09:59.340Z,2.47
2024-03-16T08:12:25.962Z,2.55
2024-03-16T08:14:52.526Z,2.47
2024-03-16T08:17:19.676Z,2.30
2024-03-16T08:19:46.290Z,2.55
2024-03-16T08:22:13.002Z,2.38
2024-03-16T08:24:39.658Z,2.70
2024-03-16T08:27:06.284Z,2.35
2024-03-16T08:29:34.135Z,2.45
2024-03-16T08:32:00.722Z,2.35
2024-03-16T08:34:27.487Z,2.03
2024-03-16T08:36:54.247Z,2.00
2024-03-16T08:39:21.550Z,2.50
2024-03-16T08:41:49.131Z,2.08
2024-03-16T08:44:15.751Z,1.98
2024-03-16T08:46:42.328Z,2.30
2024-03-16T08:49:09.001Z,2.17
2024-03-16T08:51:36.178Z,2.00
2024-03-16T08:54:02.830Z,1.83
2024-03-16T08:56:29.820Z,2.10
2024-03-16T08:58:57.501Z,2.10
2024-03-16T09:01:24.558Z,2.15
2024-03-16T09:03:51.168Z,2.20
2024-03-16T09:06:18.275Z,2.25
2024-03-16T09:08:44.983Z,2.08
2024-03-16T09:11:12.535Z,1.83
2024-03-16T09:13:39.113Z,1.98
2024-03-16T09:16:07.083Z,1.98
2024-03-16T09:18:36.125Z,2.15
2024-03-16T09:21:03.904Z,1.73
2024-03-16T09:23:30.864Z,1.80
2024-03-16T09:25:57.706Z,1.67
2024-03-16T09:28:24.614Z,1.67
2024-03-16T09:30:54.026Z,2.00
2024-03-16T09:33:22.896Z,2.42
2024-03-16T09:35:49.395Z,1.85
2024-03-16T09:38:15.872Z,1.95
2024-03-16T09:40:45.522Z,1.88
